Anawalt, West Virginia
Current Conditions -  °F | °C
As of 9:52 PM on Saturday 22 Nov 2014 (Local Time) from KBLF Reporting Station
Clear Clear  
Wind Chill:   Ceiling: Unl
Heat Index:   Visibility: 10mi
Dew Point: -9°   Wind: 3mph
Humidity: 34%   Direction: 90°E
Pressure: 30.21"   Gusts: NA
Location:  37.34°N, 81.44°W
Report Text: KBLF 230252Z AUTO 09003KT 10SM CLR 06/M09 A3021 RMK AO2 SLP231 T00611089 58012
Loading
Personal Weather Stations






























Interactive Weather Map New forecast layout! Learn more

10-Day Weather Forecast

Advertisements
Track Severe Weather on mobile